ΕΜΥ, Εθνική Μετεωρολογική Υπηρεσία - Δελτία Καιρού, Προγνώσεις

ΑΕΡΟΝΑΥΤΙΛΙΑ

GREEK AIRPORTS CODES

LGML 141400Z 19005KT 9999 FEW013 18/13 Q1017 RMK FEW040=

EUROPEAN AIRPORTS CODES

LFPO 141730Z 07006KT 040V120 9999 BKN031 01/M05 Q1023 NOSIG=